Time;durP1;ratioP1;P1;durP2;ratioP2;P2;SDS_P1;SDS_P2;PMS_P1;PMS_P2;Temp;Humidity;BMP_temperature;BMP_pressure;BME280_temperature;BME280_humidity;BME280_pressure;Samples;Min_cycle;Max_cycle;Signal;HPM_P1;HPM_P2
2022/08/18 00:01:21;;;;;;;17.13;13.85;;;18.30;99.90;;;;;;4901910;28;90498;-34
2022/08/18 00:03:48;;;;;;;17.58;15.55;;;18.30;99.90;;;;;;4903596;28;87846;-33
2022/08/18 00:06:14;;;;;;;24.58;16.77;;;18.30;99.90;;;;;;4903778;28;90099;-32
2022/08/18 00:08:40;;;;;;;15.88;14.23;;;18.30;99.90;;;;;;4902961;28;90640;-32
2022/08/18 00:11:06;;;;;;;18.02;13.82;;;18.30;99.90;;;;;;4903441;28;90670;-33
2022/08/18 00:13:32;;;;;;;17.23;13.95;;;18.30;99.90;;;;;;4903468;28;89512;-32
2022/08/18 00:15:58;;;;;;;25.98;16.63;;;18.30;99.90;;;;;;4903381;28;90379;-34
2022/08/18 00:18:24;;;;;;;20.58;14.18;;;18.30;99.90;;;;;;4903167;28;90187;-32
2022/08/18 00:20:49;;;;;;;18.90;15.77;;;18.30;99.90;;;;;;4903464;28;89723;-32
2022/08/18 00:23:15;;;;;;;17.50;14.00;;;18.30;99.90;;;;;;4903252;28;88455;-30
2022/08/18 00:25:41;;;;;;;25.95;14.80;;;18.30;99.90;;;;;;4966512;22;89856;-31
2022/08/18 00:28:06;;;;;;;17.15;14.15;;;18.30;99.90;;;;;;4928721;28;92311;-31
2022/08/18 00:30:32;;;;;;;15.25;12.82;;;18.20;99.90;;;;;;4941631;28;89726;-32
2022/08/18 00:32:59;;;;;;;20.75;12.70;;;18.20;99.90;;;;;;4941215;28;88500;-31
2022/08/18 00:35:28;;;;;;;13.98;12.57;;;18.20;99.90;;;;;;4939534;28;90559;-31
2022/08/18 00:37:56;;;;;;;18.25;13.77;;;18.10;99.90;;;;;;4939928;28;89400;-34
2022/08/18 00:40:27;;;;;;;15.00;12.32;;;18.10;99.90;;;;;;4941544;28;89632;-34
2022/08/18 00:42:57;;;;;;;14.75;13.15;;;18.10;99.90;;;;;;4941445;28;88277;-31
2022/08/18 00:45:27;;;;;;;15.20;12.27;;;18.00;99.90;;;;;;4927644;28;90356;-33
2022/08/18 00:47:53;;;;;;;21.00;14.55;;;18.00;99.90;;;;;;4928606;28;91724;-32
2022/08/18 00:50:44;;;;;;;14.32;12.60;;;18.00;99.90;;;;;;4941913;28;90183;-35
2022/08/18 00:53:21;;;;;;;24.50;14.10;;;18.00;99.90;;;;;;4922625;28;87884;-30
2022/08/18 00:55:48;;;;;;;17.80;13.30;;;18.00;99.90;;;;;;4936779;28;90814;-31
2022/08/18 00:58:26;;;;;;;23.73;14.60;;;18.00;99.90;;;;;;4941057;28;90542;-33
2022/08/18 01:00:52;;;;;;;20.17;14.32;;;18.00;99.90;;;;;;4941580;28;90563;-30
2022/08/18 01:03:20;;;;;;;13.82;12.43;;;18.00;99.90;;;;;;4941497;28;90180;-32
2022/08/18 01:05:54;;;;;;;12.70;11.38;;;18.00;99.90;;;;;;4941251;28;90180;-32
2022/08/18 01:08:19;;;;;;;17.45;14.35;;;18.00;99.90;;;;;;4940958;28;89724;-31
2022/08/18 01:10:45;;;;;;;17.67;13.70;;;18.00;99.90;;;;;;4929194;28;88180;-33
2022/08/18 01:13:11;;;;;;;13.85;11.55;;;18.00;99.90;;;;;;4939795;28;89593;-36
2022/08/18 01:15:37;;;;;;;14.27;12.73;;;18.00;99.90;;;;;;4941392;28;89151;-30
2022/08/18 01:23:48;;;;;;;14.38;12.85;;;18.00;99.90;;;;;;4941063;28;90938;-31
2022/08/18 01:26:16;;;;;;;17.15;13.63;;;18.00;99.90;;;;;;4940549;28;90223;-34
2022/08/18 01:28:44;;;;;;;18.00;13.68;;;18.10;99.90;;;;;;4941081;28;89744;-34
2022/08/18 01:31:12;;;;;;;20.50;12.73;;;18.10;99.90;;;;;;4941043;28;89587;-34
2022/08/18 01:33:42;;;;;;;15.82;14.23;;;18.10;99.90;;;;;;4941102;28;89607;-31
2022/08/18 01:36:15;;;;;;;18.70;13.00;;;18.10;99.90;;;;;;4941037;28;90398;-35
2022/08/18 01:38:42;;;;;;;17.35;12.73;;;18.10;99.90;;;;;;4941132;28;90017;-32
2022/08/18 01:41:08;;;;;;;18.17;10.93;;;18.10;99.90;;;;;;4941084;28;89477;-31
2022/08/18 01:43:35;;;;;;;17.95;13.75;;;18.10;99.90;;;;;;4939402;28;90169;-31
2022/08/18 01:46:03;;;;;;;18.20;12.18;;;18.10;99.90;;;;;;4928063;28;90301;-32
2022/08/18 01:48:32;;;;;;;23.73;11.63;;;18.10;99.90;;;;;;4940137;28;90386;-32
2022/08/18 01:50:59;;;;;;;14.27;10.95;;;18.10;99.90;;;;;;4940407;28;90458;-33
2022/08/18 01:53:26;;;;;;;16.63;12.40;;;18.10;99.90;;;;;;4941299;28;88714;-34
2022/08/18 01:55:51;;;;;;;11.35;10.20;;;18.10;99.90;;;;;;4940802;28;90163;-32
2022/08/18 01:58:17;;;;;;;14.05;11.25;;;18.00;99.90;;;;;;4939793;28;89714;-32
2022/08/18 02:00:43;;;;;;;13.27;11.75;;;18.00;99.90;;;;;;4940772;28;89923;-31
2022/08/18 02:03:11;;;;;;;14.98;10.77;;;18.00;99.90;;;;;;4940793;28;88788;-31
2022/08/18 02:05:45;;;;;;;20.42;12.35;;;17.90;99.90;;;;;;4940434;28;90737;-32
2022/08/18 02:08:11;;;;;;;16.40;12.13;;;17.90;99.90;;;;;;4941246;28;89495;-32
2022/08/18 02:10:37;;;;;;;15.38;11.05;;;17.90;99.90;;;;;;4940419;28;89672;-30
2022/08/18 02:13:03;;;;;;;27.80;12.18;;;17.90;99.90;;;;;;4939990;28;89276;-31
2022/08/18 02:15:30;;;;;;;12.68;11.20;;;17.90;99.90;;;;;;4940336;28;90838;-29
2022/08/18 02:17:56;;;;;;;19.75;14.02;;;17.90;99.90;;;;;;4939918;28;89834;-31
2022/08/18 02:20:21;;;;;;;17.90;11.27;;;17.90;99.90;;;;;;4940869;28;89672;-33
2022/08/18 02:22:48;;;;;;;17.13;13.55;;;17.90;99.90;;;;;;4939923;28;87737;-32
2022/08/18 02:25:15;;;;;;;17.85;12.57;;;17.90;99.90;;;;;;4938911;28;90593;-32
2022/08/18 02:27:42;;;;;;;18.80;12.83;;;17.90;99.90;;;;;;4940436;28;89848;-33
2022/08/18 02:30:10;;;;;;;16.05;12.57;;;17.90;99.90;;;;;;4939928;28;89097;-33
2022/08/18 02:32:36;;;;;;;14.38;11.50;;;17.90;99.90;;;;;;4940056;28;88785;-32
2022/08/18 02:35:03;;;;;;;22.58;12.32;;;17.90;99.90;;;;;;4939669;28;89212;-32
2022/08/18 02:37:29;;;;;;;16.75;12.48;;;17.90;99.90;;;;;;4939164;28;90919;-32
2022/08/18 02:39:56;;;;;;;16.35;10.73;;;17.90;99.90;;;;;;4939455;28;90816;-32
2022/08/18 02:42:22;;;;;;;19.90;12.05;;;17.90;99.90;;;;;;4940577;28;89845;-31
2022/08/18 02:44:47;;;;;;;16.23;10.15;;;17.90;99.90;;;;;;4929307;28;90253;-31
2022/08/18 02:47:13;;;;;;;15.00;11.93;;;17.90;99.90;;;;;;4937007;28;90105;-35
2022/08/18 02:49:39;;;;;;;18.05;11.65;;;17.90;99.90;;;;;;4939925;28;89703;-32
2022/08/18 02:52:06;;;;;;;17.98;11.02;;;17.90;99.90;;;;;;4939658;28;88104;-32
2022/08/18 02:54:32;;;;;;;20.85;10.63;;;17.90;99.90;;;;;;4939747;28;90397;-33
2022/08/18 02:56:57;;;;;;;14.88;11.07;;;17.90;99.90;;;;;;4940515;28;88760;-30
2022/08/18 02:59:26;;;;;;;14.38;12.68;;;17.90;99.90;;;;;;4939750;28;89706;-32
2022/08/18 03:01:54;;;;;;;16.70;12.35;;;17.90;99.90;;;;;;4939526;28;90074;-31
2022/08/18 03:04:25;;;;;;;13.20;11.82;;;17.90;99.90;;;;;;4939539;28;91116;-31
2022/08/18 03:06:55;;;;;;;16.95;12.05;;;17.90;99.90;;;;;;4940040;28;89552;-34
2022/08/18 03:09:21;;;;;;;14.07;10.70;;;17.90;99.90;;;;;;4939822;28;89870;-31
2022/08/18 03:11:47;;;;;;;17.40;12.52;;;17.90;99.90;;;;;;4940093;28;89512;-33
2022/08/18 03:14:14;;;;;;;17.60;11.57;;;17.90;99.90;;;;;;4939017;28;90191;-31
2022/08/18 03:16:45;;;;;;;14.65;11.95;;;18.00;99.90;;;;;;4939585;28;90517;-32
2022/08/18 03:19:15;;;;;;;19.63;12.60;;;18.00;99.90;;;;;;4939260;28;89788;-32
2022/08/18 03:21:42;;;;;;;14.00;11.30;;;18.00;99.90;;;;;;4939727;28;88167;-30
2022/08/18 03:24:07;;;;;;;21.38;13.00;;;18.00;99.90;;;;;;4939673;28;90723;-31
2022/08/18 03:26:34;;;;;;;12.05;10.73;;;18.00;99.90;;;;;;4938314;28;90624;-32
2022/08/18 03:29:00;;;;;;;12.73;11.43;;;18.00;99.90;;;;;;4938792;28;90046;-33
2022/08/18 03:31:27;;;;;;;16.52;12.70;;;18.00;99.90;;;;;;4939716;28;89714;-34
2022/08/18 03:33:55;;;;;;;15.03;13.47;;;18.00;99.90;;;;;;4939619;28;90431;-32
2022/08/18 03:36:23;;;;;;;19.33;13.53;;;18.00;99.90;;;;;;4938470;28;90302;-33
2022/08/18 03:38:52;;;;;;;16.98;12.38;;;18.00;99.90;;;;;;4938945;28;89643;-31
2022/08/18 03:41:21;;;;;;;14.60;11.90;;;18.00;99.90;;;;;;4938729;28;88348;-31
2022/08/18 03:43:48;;;;;;;15.52;11.85;;;18.00;99.90;;;;;;4936920;28;90530;-31
2022/08/18 03:46:15;;;;;;;15.18;13.35;;;18.00;99.90;;;;;;4928983;28;90493;-31
2022/08/18 03:48:42;;;;;;;15.97;13.23;;;18.00;99.90;;;;;;4939292;28;89252;-31
2022/08/18 03:51:17;;;;;;;18.50;12.80;;;18.00;99.90;;;;;;4938403;28;89884;-31
2022/08/18 03:53:44;;;;;;;18.75;12.90;;;18.00;99.90;;;;;;4939516;28;89080;-32
2022/08/18 03:56:16;;;;;;;13.63;12.25;;;18.10;99.90;;;;;;4938668;28;90167;-30
2022/08/18 03:58:44;;;;;;;16.50;12.85;;;18.00;99.90;;;;;;4924718;28;89705;-33
2022/08/18 04:01:14;;;;;;;21.05;13.60;;;18.00;99.90;;;;;;4925687;28;88665;-33
2022/08/18 04:03:44;;;;;;;19.50;14.38;;;18.00;99.90;;;;;;4939032;28;91514;-33
2022/08/18 04:06:23;;;;;;;16.90;13.50;;;18.00;99.90;;;;;;4938660;28;89455;-32
2022/08/18 04:08:53;;;;;;;17.90;11.98;;;18.00;99.90;;;;;;4939504;28;89666;-31
2022/08/18 04:11:19;;;;;;;29.52;14.88;;;18.00;99.90;;;;;;4939294;28;88586;-34
2022/08/18 04:13:45;;;;;;;17.80;13.95;;;18.00;99.90;;;;;;4938602;28;90209;-33
2022/08/18 04:16:10;;;;;;;23.55;13.98;;;18.00;99.90;;;;;;4938643;28;90780;-33
2022/08/18 04:18:36;;;;;;;18.15;13.88;;;18.00;99.90;;;;;;4938783;28;90602;-30
2022/08/18 04:21:09;;;;;;;16.65;13.35;;;17.90;99.90;;;;;;4938394;28;90284;-34
2022/08/18 04:23:36;;;;;;;20.50;13.48;;;18.00;99.90;;;;;;4938698;28;90153;-31
2022/08/18 04:26:03;;;;;;;15.32;10.93;;;18.00;99.90;;;;;;4938237;28;89640;-30
2022/08/18 04:28:29;;;;;;;17.40;13.55;;;18.00;99.90;;;;;;4938400;28;89389;-31
2022/08/18 04:30:58;;;;;;;14.52;12.82;;;18.00;99.90;;;;;;4938631;28;89396;-30
2022/08/18 04:33:27;;;;;;;22.17;14.85;;;18.00;99.90;;;;;;4938522;28;90447;-32
2022/08/18 04:35:54;;;;;;;18.98;14.45;;;18.00;99.90;;;;;;4939055;28;89342;-31
2022/08/18 04:38:21;;;;;;;19.52;13.38;;;18.00;99.90;;;;;;4937940;28;89553;-34
2022/08/18 04:40:46;;;;;;;15.60;13.32;;;18.00;99.90;;;;;;4938319;28;89252;-33
2022/08/18 04:43:14;;;;;;;18.13;13.25;;;18.00;99.90;;;;;;4937995;28;90099;-31
2022/08/18 04:45:46;;;;;;;20.13;14.73;;;18.00;99.90;;;;;;4924546;28;89609;-36
2022/08/18 04:48:14;;;;;;;16.50;12.65;;;18.00;99.90;;;;;;4941044;28;89500;-34
2022/08/18 04:50:41;;;;;;;19.02;13.10;;;18.00;99.90;;;;;;4941574;28;89166;-34
2022/08/18 04:55:53;;;;;;;27.45;14.95;;;18.00;99.90;;;;;;4941727;28;90695;-32
2022/08/18 04:58:21;;;;;;;15.40;13.75;;;18.10;99.90;;;;;;4941494;28;90617;-35
2022/08/18 05:00:56;;;;;;;15.63;13.57;;;18.10;99.90;;;;;;4940981;28;88806;-35
2022/08/18 05:03:25;;;;;;;17.15;13.30;;;18.10;99.90;;;;;;4941385;28;90407;-34
2022/08/18 05:05:57;;;;;;;22.77;12.85;;;18.10;99.90;;;;;;4941095;28;91402;-33
2022/08/18 05:08:23;;;;;;;19.98;14.82;;;18.10;99.90;;;;;;4941618;28;90682;-33
2022/08/18 05:10:58;;;;;;;19.13;14.25;;;18.10;99.90;;;;;;4941500;28;90031;-33
2022/08/18 05:13:25;;;;;;;21.75;14.70;;;18.10;99.90;;;;;;4941021;28;91141;-35
2022/08/18 05:16:02;;;;;;;24.08;13.73;;;18.10;99.90;;;;;;4941641;28;89930;-34
2022/08/18 05:18:29;;;;;;;19.60;14.63;;;18.10;99.90;;;;;;4941406;28;91392;-33
2022/08/18 05:20:56;;;;;;;21.52;14.32;;;18.10;99.90;;;;;;4940883;28;88111;-34
2022/08/18 05:23:22;;;;;;;15.88;13.43;;;18.20;99.90;;;;;;4941458;28;89646;-35
2022/08/18 05:25:48;;;;;;;22.75;15.93;;;18.20;99.90;;;;;;4941031;28;89969;-33
2022/08/18 05:28:15;;;;;;;27.52;14.35;;;18.20;99.90;;;;;;4940697;28;90156;-32
2022/08/18 05:30:41;;;;;;;18.08;12.63;;;18.20;99.90;;;;;;4940950;28;90463;-37
2022/08/18 05:33:10;;;;;;;31.05;13.70;;;18.20;99.90;;;;;;4941616;28;89790;-33
2022/08/18 05:35:42;;;;;;;18.10;13.55;;;18.20;99.90;;;;;;4941467;28;88523;-33
2022/08/18 05:38:35;;;;;;;17.42;13.18;;;18.20;99.90;;;;;;4941052;28;89387;-34
2022/08/18 05:41:10;;;;;;;18.70;13.13;;;18.20;99.90;;;;;;4940307;28;88471;-34
2022/08/18 05:43:37;;;;;;;17.27;12.93;;;18.30;99.90;;;;;;4939932;28;90483;-33
2022/08/18 05:46:06;;;;;;;22.92;13.07;;;18.20;99.90;;;;;;4929114;28;90014;-31
2022/08/18 05:48:32;;;;;;;20.45;13.18;;;18.30;99.90;;;;;;4940805;28;89437;-31
2022/08/18 05:51:01;;;;;;;17.90;13.38;;;18.30;99.90;;;;;;4940347;28;88917;-30
2022/08/18 05:56:45;;;;;;;30.13;13.82;;;18.30;99.90;;;;;;4939714;28;90171;-31
2022/08/18 05:59:04;;;;;;;20.95;11.98;;;18.30;99.90;;;;;;4939717;28;89544;-32
2022/08/18 06:01:38;;;;;;;17.02;10.82;;;18.30;99.90;;;;;;4941003;28;90260;-30
2022/08/18 06:04:12;;;;;;;26.35;14.10;;;18.30;99.90;;;;;;4939842;28;90442;-31
2022/08/18 06:06:39;;;;;;;20.23;14.02;;;18.30;99.90;;;;;;4941694;28;90295;-31
2022/08/18 06:09:33;;;;;;;17.58;12.77;;;18.40;99.90;;;;;;4940189;28;90359;-30
2022/08/18 06:12:12;;;;;;;16.80;12.73;;;18.40;99.90;;;;;;4940341;28;89822;-32
2022/08/18 06:14:38;;;;;;;17.45;13.30;;;18.50;99.90;;;;;;4941020;28;89857;-33
2022/08/18 06:17:50;;;;;;;17.73;11.40;;;18.60;99.90;;;;;;4940979;28;89862;-31
2022/08/18 06:20:44;;;;;;;18.73;14.38;;;18.60;99.90;;;;;;4939755;28;89830;-32
2022/08/18 06:23:30;;;;;;;18.25;12.50;;;18.60;99.90;;;;;;4940275;28;89959;-32
2022/08/18 06:25:58;;;;;;;15.75;12.20;;;18.60;99.90;;;;;;4939553;28;90733;-29
2022/08/18 06:28:32;;;;;;;18.55;12.68;;;18.60;99.90;;;;;;4926143;28;89931;-34
2022/08/18 06:31:21;;;;;;;18.15;12.45;;;18.70;99.90;;;;;;4940664;28;88330;-34
2022/08/18 06:33:50;;;;;;;13.25;11.23;;;18.70;99.90;;;;;;4924879;28;88323;-37
2022/08/18 06:36:38;;;;;;;14.00;10.90;;;18.60;99.90;;;;;;4939962;28;89096;-32
2022/08/18 06:39:15;;;;;;;;;;;18.60;99.90;;;;;;4940586;28;89555;-35
2022/08/18 06:41:48;;;;;;;20.10;11.90;;;18.60;99.90;;;;;;4940451;28;88482;-32
2022/08/18 06:44:19;;;;;;;17.10;11.68;;;18.60;99.90;;;;;;4937959;28;90057;-33
2022/08/18 06:46:52;;;;;;;13.82;11.40;;;18.60;99.90;;;;;;4939305;28;90750;-35
2022/08/18 06:49:34;;;;;;;17.13;10.00;;;18.60;99.90;;;;;;4938250;28;90830;-35
2022/08/18 06:52:18;;;;;;;15.20;9.98;;;18.60;99.90;;;;;;4939883;28;90049;-33
2022/08/18 06:54:43;;;;;;;13.57;10.68;;;18.70;99.90;;;;;;4927657;28;88378;-35
2022/08/18 06:57:40;;;;;;;13.70;10.57;;;18.70;99.90;;;;;;4936634;28;90755;-36
2022/08/18 07:00:15;;;;;;;12.57;10.17;;;18.70;99.90;;;;;;4930076;28;91045;-34
2022/08/18 07:02:50;;;;;;;22.30;11.80;;;18.70;99.90;;;;;;4937223;28;90121;-35
2022/08/18 07:05:19;;;;;;;15.27;10.20;;;18.80;99.90;;;;;;4937867;28;87583;-36
2022/08/18 07:07:46;;;;;;;10.00;9.02;;;18.80;99.90;;;;;;4936732;28;90305;-35
2022/08/18 07:10:14;;;;;;;13.20;10.02;;;18.90;99.90;;;;;;4926786;28;90314;-35
2022/08/18 07:12:41;;;;;;;10.65;9.38;;;18.90;99.90;;;;;;4923623;28;89770;-34
2022/08/18 07:15:10;;;;;;;18.23;11.05;;;18.90;99.90;;;;;;4929012;28;89517;-36
2022/08/18 07:17:37;;;;;;;13.30;9.57;;;18.90;99.90;;;;;;4937058;28;90124;-36
2022/08/18 07:20:16;;;;;;;11.85;10.00;;;19.00;99.90;;;;;;4938407;28;89227;-34
2022/08/18 07:23:01;;;;;;;16.17;9.35;;;19.00;99.90;;;;;;4938179;28;89674;-34
2022/08/18 07:25:48;;;;;;;13.88;10.85;;;19.00;99.90;;;;;;4929671;28;88591;-32
2022/08/18 07:28:26;;;;;;;16.10;10.20;;;19.20;99.90;;;;;;4937202;28;91064;-33
2022/08/18 07:31:05;;;;;;;13.15;10.15;;;19.30;99.90;;;;;;4937220;28;88961;-32
2022/08/18 07:33:31;;;;;;;13.52;9.63;;;19.30;99.90;;;;;;4936810;28;89941;-33
2022/08/18 07:36:03;;;;;;;12.18;10.85;;;19.40;99.90;;;;;;4938151;28;88387;-33
2022/08/18 07:38:35;;;;;;;11.15;9.20;;;19.50;99.90;;;;;;4937324;28;90725;-34
2022/08/18 07:41:25;;;;;;;11.88;9.75;;;19.70;99.90;;;;;;4935614;28;92108;-34
2022/08/18 07:44:18;;;;;;;18.45;10.50;;;19.80;99.90;;;;;;4934696;28;90536;-35
2022/08/18 07:46:54;;;;;;;11.50;10.40;;;20.10;99.90;;;;;;4930556;28;89110;-34
2022/08/18 07:49:22;;;;;;;8.57;7.82;;;20.10;99.90;;;;;;4937379;28;89708;-33
2022/08/18 07:51:55;;;;;;;13.25;10.13;;;20.10;99.90;;;;;;4939110;28;89709;-34
2022/08/18 07:54:27;;;;;;;13.77;9.20;;;20.00;99.90;;;;;;4939316;28;89669;-33
2022/08/18 07:57:17;;;;;;;10.52;8.57;;;20.00;99.90;;;;;;4938019;28;87752;-33
2022/08/18 08:00:04;;;;;;;11.13;9.55;;;19.90;99.90;;;;;;4924465;28;91969;-36
2022/08/18 08:02:48;;;;;;;11.20;9.30;;;19.80;99.90;;;;;;4938145;28;89807;-32
2022/08/18 08:05:31;;;;;;;13.18;9.93;;;19.80;99.90;;;;;;4939325;28;89534;-35
2022/08/18 08:08:05;;;;;;;11.45;8.65;;;19.80;99.90;;;;;;4939071;28;89000;-32
2022/08/18 08:10:48;;;;;;;16.90;10.65;;;19.90;99.90;;;;;;4938730;28;91131;-33
2022/08/18 08:13:48;;;;;;;14.52;8.30;;;19.90;99.90;;;;;;4937804;28;89995;-36
2022/08/18 08:16:23;;;;;;;12.27;8.05;;;20.00;99.90;;;;;;4938129;28;89628;-36
2022/08/18 08:18:56;;;;;;;9.48;7.68;;;20.00;99.90;;;;;;4939604;28;89642;-31
2022/08/18 08:21:24;;;;;;;11.63;7.25;;;20.00;99.90;;;;;;4939360;28;90487;-33
2022/08/18 08:24:32;;;;;;;10.73;8.38;;;20.10;99.90;;;;;;4943311;28;89629;-33
2022/08/18 08:27:49;;;;;;;7.90;6.93;;;20.20;99.90;;;;;;4931523;28;88670;-31
2022/08/18 08:30:18;;;;;;;7.50;6.80;;;20.30;99.90;;;;;;4920180;28;88919;-30
2022/08/18 08:33:16;;;;;;;8.85;8.07;;;20.30;99.90;;;;;;4919999;28;91292;-30
2022/08/18 08:35:53;;;;;;;7.70;6.88;;;20.40;99.90;;;;;;4931195;28;90857;-30
2022/08/18 08:38:46;;;;;;;8.20;7.40;;;20.60;99.90;;;;;;4942161;28;90789;-32
2022/08/18 08:41:38;;;;;;;9.63;6.70;;;20.70;99.90;;;;;;4942643;28;89586;-31
2022/08/18 08:44:13;;;;;;;10.98;6.05;;;20.80;99.90;;;;;;4937376;28;90261;-31
2022/08/18 08:46:55;;;;;;;11.82;7.60;;;20.80;99.90;;;;;;4935079;28;89622;-32
2022/08/18 08:49:43;;;;;;;7.80;7.00;;;20.90;99.90;;;;;;4929462;28;89329;-32
2022/08/18 08:52:19;;;;;;;6.30;5.38;;;20.90;99.90;;;;;;4942579;28;89206;-32
2022/08/18 08:54:49;;;;;;;8.65;6.88;;;20.80;99.90;;;;;;4942551;28;88479;-32
2022/08/18 08:57:17;;;;;;;10.52;6.18;;;20.70;99.90;;;;;;4942188;28;89695;-32
2022/08/18 08:59:46;;;;;;;6.82;5.88;;;20.60;99.90;;;;;;4942221;28;89806;-33
2022/08/18 09:02:43;;;;;;;8.68;6.40;;;20.40;99.90;;;;;;4941054;28;90095;-32
2022/08/18 09:05:22;;;;;;;5.80;5.30;;;20.40;99.90;;;;;;4941798;28;89741;-34
2022/08/18 09:08:08;;;;;;;6.65;5.90;;;20.30;99.90;;;;;;4941898;28;90095;-34
2022/08/18 09:11:26;;;;;;;10.77;5.57;;;20.20;99.90;;;;;;4942055;28;90097;-36
2022/08/18 09:14:16;;;;;;;9.32;6.22;;;20.10;99.90;;;;;;4913028;28;88929;-35
2022/08/18 09:17:19;;;;;;;8.32;5.38;;;20.00;99.90;;;;;;4929984;28;89742;-34
2022/08/18 09:20:09;;;;;;;8.43;6.32;;;19.90;99.90;;;;;;4942339;28;89568;-34
2022/08/18 09:22:41;;;;;;;9.02;6.00;;;19.90;99.90;;;;;;4941844;28;89587;-34
2022/08/18 09:25:29;;;;;;;6.72;5.15;;;19.90;99.90;;;;;;4941349;28;88838;-33
2022/08/18 09:28:11;;;;;;;;;;;19.90;99.90;;;;;;4942312;28;90465;-33
2022/08/18 09:31:09;;;;;;;12.40;6.18;;;19.90;99.90;;;;;;4943212;28;90525;-34
2022/08/18 09:33:44;;;;;;;;;;;19.90;99.90;;;;;;4942359;28;90462;-36
2022/08/18 09:36:21;;;;;;;7.70;5.70;;;19.80;99.90;;;;;;4943227;28;89947;-33
2022/08/18 09:42:13;;;;;;;8.75;6.55;;;19.90;99.90;;;;;;4941810;28;90125;-36
2022/08/18 09:44:45;;;;;;;9.82;6.57;;;19.90;99.90;;;;;;4931824;28;90121;-33
2022/08/18 09:47:32;;;;;;;10.85;5.93;;;20.00;99.90;;;;;;4939273;28;90597;-33
2022/08/18 09:50:27;;;;;;;10.18;5.22;;;20.00;99.90;;;;;;4941447;28;90127;-33
2022/08/18 09:52:57;;;;;;;10.32;6.25;;;20.10;99.90;;;;;;4941333;28;90214;-33
2022/08/18 09:55:23;;;;;;;6.53;5.28;;;20.10;99.90;;;;;;4941305;28;89399;-34
2022/08/18 09:58:25;;;;;;;12.30;7.00;;;20.20;99.90;;;;;;4941243;28;89776;-33
2022/08/18 10:01:20;;;;;;;10.27;8.32;;;20.20;99.90;;;;;;4941377;28;89856;-34
2022/08/18 10:04:13;;;;;;;7.55;5.93;;;20.20;99.90;;;;;;4940903;28;89991;-34
2022/08/18 10:06:41;;;;;;;13.93;5.88;;;20.20;99.90;;;;;;4930976;28;88604;-33
2022/08/18 10:09:25;;;;;;;7.05;6.35;;;20.10;99.90;;;;;;4942170;28;89911;-36
2022/08/18 10:12:22;;;;;;;10.20;6.97;;;20.20;99.90;;;;;;4940774;28;90224;-35
2022/08/18 10:15:14;;;;;;;10.02;5.78;;;20.20;99.90;;;;;;4940912;28;90131;-34
2022/08/18 10:18:00;;;;;;;8.05;6.22;;;20.40;99.90;;;;;;4941622;28;89802;-30
2022/08/18 10:20:48;;;;;;;9.20;6.47;;;20.50;99.90;;;;;;4940775;28;88320;-32
2022/08/18 10:23:54;;;;;;;6.50;4.97;;;20.60;99.90;;;;;;4940311;28;91595;-30
2022/08/18 10:26:29;;;;;;;8.48;5.97;;;20.80;99.90;;;;;;4939106;28;90795;-32
2022/08/18 10:29:08;;;;;;;8.75;5.72;;;20.90;99.90;;;;;;4940969;28;90341;-32
2022/08/18 10:31:55;;;;;;;6.68;4.88;;;20.90;99.90;;;;;;4941214;28;88939;-31
2022/08/18 10:34:42;;;;;;;8.23;4.70;;;21.00;99.90;;;;;;4941327;28;89879;-30
2022/08/18 10:37:16;;;;;;;5.60;4.27;;;21.00;99.90;;;;;;4928830;28;91118;-33
2022/08/18 10:40:12;;;;;;;5.93;4.15;;;21.00;99.90;;;;;;4940869;28;89566;-34
2022/08/18 10:42:42;;;;;;;3.90;3.60;;;20.90;99.90;;;;;;4941874;28;88912;-31
2022/08/18 10:45:18;;;;;;;4.97;3.90;;;21.00;99.90;;;;;;4926820;28;90402;-31
2022/08/18 10:48:17;;;;;;;5.10;3.70;;;21.10;99.90;;;;;;4928847;28;89357;-30
2022/08/18 10:50:57;;;;;;;5.85;3.97;;;21.00;99.90;;;;;;4940602;28;89708;-30
2022/08/18 10:53:50;;;;;;;3.70;2.97;;;21.00;99.90;;;;;;4940776;28;89851;-32
2022/08/18 10:56:53;;;;;;;3.22;2.97;;;21.00;99.90;;;;;;4927713;28;90412;-31
2022/08/18 10:59:24;;;;;;;4.65;3.92;;;20.90;99.90;;;;;;4939811;28;89907;-33
2022/08/18 11:02:05;;;;;;;3.50;3.20;;;20.90;99.90;;;;;;4940281;28;89972;-32
2022/08/18 11:04:37;;;;;;;3.83;3.53;;;20.90;99.90;;;;;;4940062;28;88653;-31
2022/08/18 11:07:23;;;;;;;4.15;3.55;;;20.90;99.90;;;;;;4940332;28;90349;-32
2022/08/18 11:09:51;;;;;;;5.38;3.10;;;20.90;99.90;;;;;;4939563;28;89553;-31
2022/08/18 11:12:35;;;;;;;;;;;21.00;99.90;;;;;;4940432;28;90081;-30
2022/08/18 11:15:32;;;;;;;4.95;4.45;;;21.00;99.90;;;;;;4930125;28;89195;-32
2022/08/18 11:18:27;;;;;;;5.25;3.95;;;21.00;99.90;;;;;;4940222;28;90509;-30
2022/08/18 11:21:12;;;;;;;6.57;5.85;;;21.10;99.90;;;;;;4939011;28;91300;-31
2022/08/18 11:23:37;;;;;;;8.90;5.97;;;21.10;99.90;;;;;;4940244;28;90702;-30
2022/08/18 11:26:14;;;;;;;9.45;6.57;;;21.20;99.90;;;;;;4939255;28;89950;-32
2022/08/18 11:28:39;;;;;;;6.10;5.00;;;21.30;99.90;;;;;;4940444;28;91007;-31
2022/08/18 11:31:05;;;;;;;5.75;4.60;;;21.30;99.90;;;;;;4940098;28;89400;-31
2022/08/18 11:33:31;;;;;;;7.32;5.13;;;21.30;99.90;;;;;;4939565;28;89922;-31
2022/08/18 11:35:58;;;;;;;5.85;5.35;;;21.20;99.90;;;;;;4940408;28;88203;-32
2022/08/18 11:38:25;;;;;;;5.70;5.28;;;21.30;99.90;;;;;;4939410;28;88935;-32
2022/08/18 11:41:07;;;;;;;7.97;6.93;;;21.20;99.90;;;;;;4940018;28;90031;-31
2022/08/18 11:43:35;;;;;;;7.65;4.40;;;21.20;99.90;;;;;;4939078;28;89445;-30
2022/08/18 11:46:20;;;;;;;8.90;5.47;;;21.10;99.90;;;;;;4927301;28;89931;-31
2022/08/18 11:48:49;;;;;;;6.68;4.68;;;21.10;99.90;;;;;;4938306;28;90548;-33
2022/08/18 11:51:16;;;;;;;5.35;4.32;;;21.20;99.90;;;;;;4939318;28;89771;-34
2022/08/18 11:53:48;;;;;;;6.15;4.43;;;21.20;99.90;;;;;;4940402;28;89025;-35
2022/08/18 11:56:19;;;;;;;5.20;4.30;;;21.20;99.90;;;;;;4939963;28;89019;-37
2022/08/18 11:59:00;;;;;;;7.13;4.68;;;21.20;99.90;;;;;;4943344;28;90233;-32
2022/08/18 12:01:37;;;;;;;5.00;3.97;;;21.10;99.90;;;;;;4931649;28;89713;-35
2022/08/18 12:04:15;;;;;;;6.78;4.43;;;21.20;99.90;;;;;;4943035;28;89817;-36
2022/08/18 12:07:02;;;;;;;5.28;4.28;;;21.20;99.90;;;;;;4944221;28;90115;-33
2022/08/18 12:10:07;;;;;;;5.90;4.43;;;21.30;99.90;;;;;;4943491;28;90178;-34
2022/08/18 12:12:33;;;;;;;5.20;3.88;;;21.40;99.90;;;;;;4942255;28;91002;-34
2022/08/18 12:15:11;;;;;;;7.28;5.20;;;21.40;99.90;;;;;;4942569;28;90457;-35
2022/08/18 12:17:37;;;;;;;14.05;4.28;;;21.60;99.90;;;;;;4943428;28;88495;-35
2022/08/18 12:20:07;;;;;;;7.00;5.38;;;21.60;99.90;;;;;;4943643;28;89652;-35
2022/08/18 12:22:34;;;;;;;6.15;4.82;;;21.70;99.90;;;;;;4943203;28;89668;-34
2022/08/18 12:25:01;;;;;;;5.75;4.15;;;21.70;99.90;;;;;;4978214;23;90186;-32
2022/08/18 12:27:29;;;;;;;5.40;3.80;;;21.80;99.90;;;;;;4942820;28;89097;-32
2022/08/18 12:29:57;;;;;;;4.35;3.58;;;21.90;99.90;;;;;;4942597;28;90290;-35
2022/08/18 12:32:23;;;;;;;;;;;21.90;99.90;;;;;;4944136;28;89471;-32
2022/08/18 12:34:49;;;;;;;6.05;4.07;;;21.90;99.90;;;;;;4944280;28;90488;-35
2022/08/18 12:37:18;;;;;;;5.03;4.53;;;22.00;99.90;;;;;;4942081;28;89512;-30
2022/08/18 12:39:44;;;;;;;7.18;3.90;;;21.90;99.90;;;;;;4942470;28;90878;-31
2022/08/18 12:42:10;;;;;;;9.50;5.88;;;22.00;99.90;;;;;;4942973;28;89325;-31
2022/08/18 12:44:37;;;;;;;7.63;4.05;;;21.90;99.90;;;;;;4933325;28;90985;-34
2022/08/18 12:47:10;;;;;;;5.45;4.70;;;21.90;99.90;;;;;;4938173;28;89100;-35
2022/08/18 12:49:36;;;;;;;4.95;3.92;;;21.80;99.90;;;;;;4942434;28;90564;-33
2022/08/18 12:52:02;;;;;;;3.80;3.45;;;21.80;99.90;;;;;;4941813;28;90189;-34
2022/08/18 12:54:28;;;;;;;6.55;3.47;;;21.90;99.90;;;;;;4943159;28;89847;-32
2022/08/18 12:56:56;;;;;;;4.32;2.97;;;21.90;99.90;;;;;;4942889;28;88544;-32
2022/08/18 12:59:23;;;;;;;5.95;4.45;;;22.00;99.90;;;;;;4941514;28;90194;-34
2022/08/18 13:01:49;;;;;;;3.47;3.17;;;22.00;99.90;;;;;;4942223;28;89237;-32
2022/08/18 13:04:15;;;;;;;4.80;4.20;;;22.20;99.90;;;;;;4941941;28;90457;-34
2022/08/18 13:06:51;;;;;;;7.72;3.85;;;22.30;99.90;;;;;;4942865;28;89039;-33
2022/08/18 13:09:17;;;;;;;5.55;4.55;;;22.30;99.90;;;;;;4942310;28;90602;-34
2022/08/18 13:11:42;;;;;;;9.77;4.50;;;22.30;99.90;;;;;;4941785;28;89697;-33
2022/08/18 13:14:08;;;;;;;5.30;4.82;;;22.40;99.90;;;;;;4942062;28;89441;-32
2022/08/18 13:16:37;;;;;;;6.07;4.05;;;22.40;99.90;;;;;;4942041;28;87740;-32
2022/08/18 13:19:03;;;;;;;4.75;4.00;;;22.30;99.90;;;;;;4942370;28;91417;-32
2022/08/18 13:21:29;;;;;;;4.32;4.00;;;22.30;99.90;;;;;;4941792;28;89876;-33
2022/08/18 13:23:54;;;;;;;5.43;3.67;;;22.20;99.90;;;;;;4942116;28;89610;-33